sensor_id;sensor_type;location;lat;lon;timestamp;P1;durP1;ratioP1;P2;durP2;ratioP2
65033;SDS011;51601;51.356;12.458;2023-07-02T00:00:59;8.93;;;2.70;;
65033;SDS011;51601;51.356;12.458;2023-07-02T00:05:18;5.25;;;2.40;;
65033;SDS011;51601;51.356;12.458;2023-07-02T00:09:36;5.72;;;2.55;;
65033;SDS011;51601;51.356;12.458;2023-07-02T00:13:54;7.03;;;2.42;;
65033;SDS011;51601;51.356;12.458;2023-07-02T00:18:17;5.63;;;2.20;;
65033;SDS011;51601;51.356;12.458;2023-07-02T00:22:34;6.25;;;2.40;;
65033;SDS011;51601;51.356;12.458;2023-07-02T00:26:52;5.65;;;2.40;;
65033;SDS011;51601;51.356;12.458;2023-07-02T00:31:10;6.97;;;2.30;;
65033;SDS011;51601;51.356;12.458;2023-07-02T00:35:29;5.00;;;2.03;;
65033;SDS011;51601;51.356;12.458;2023-07-02T00:39:46;5.28;;;2.10;;
65033;SDS011;51601;51.356;12.458;2023-07-02T00:44:04;5.27;;;2.20;;
65033;SDS011;51601;51.356;12.458;2023-07-02T00:48:22;6.18;;;2.38;;
65033;SDS011;51601;51.356;12.458;2023-07-02T00:52:41;5.85;;;2.55;;
65033;SDS011;51601;51.356;12.458;2023-07-02T00:57:01;5.93;;;2.40;;
65033;SDS011;51601;51.356;12.458;2023-07-02T01:01:24;5.30;;;2.20;;
65033;SDS011;51601;51.356;12.458;2023-07-02T01:05:42;4.90;;;2.38;;
65033;SDS011;51601;51.356;12.458;2023-07-02T01:10:02;6.75;;;2.38;;
65033;SDS011;51601;51.356;12.458;2023-07-02T01:14:23;5.70;;;2.57;;
65033;SDS011;51601;51.356;12.458;2023-07-02T01:18:43;5.50;;;2.25;;
65033;SDS011;51601;51.356;12.458;2023-07-02T01:23:02;5.82;;;2.75;;
65033;SDS011;51601;51.356;12.458;2023-07-02T01:27:22;5.20;;;2.23;;
65033;SDS011;51601;51.356;12.458;2023-07-02T01:31:43;5.75;;;2.40;;
65033;SDS011;51601;51.356;12.458;2023-07-02T01:36:05;5.82;;;2.40;;
65033;SDS011;51601;51.356;12.458;2023-07-02T01:40:24;5.32;;;2.50;;
65033;SDS011;51601;51.356;12.458;2023-07-02T01:44:41;7.00;;;2.90;;
65033;SDS011;51601;51.356;12.458;2023-07-02T01:48:59;5.55;;;2.80;;
65033;SDS011;51601;51.356;12.458;2023-07-02T01:53:17;5.22;;;2.15;;
65033;SDS011;51601;51.356;12.458;2023-07-02T01:57:36;5.27;;;2.50;;
65033;SDS011;51601;51.356;12.458;2023-07-02T02:01:53;6.85;;;2.40;;
65033;SDS011;51601;51.356;12.458;2023-07-02T02:06:11;5.20;;;2.50;;
65033;SDS011;51601;51.356;12.458;2023-07-02T02:10:29;6.70;;;2.40;;
65033;SDS011;51601;51.356;12.458;2023-07-02T02:14:48;5.00;;;2.40;;
65033;SDS011;51601;51.356;12.458;2023-07-02T02:19:08;6.43;;;2.55;;
65033;SDS011;51601;51.356;12.458;2023-07-02T02:23:26;7.82;;;3.05;;
65033;SDS011;51601;51.356;12.458;2023-07-02T02:27:44;7.63;;;2.87;;
65033;SDS011;51601;51.356;12.458;2023-07-02T02:32:04;5.63;;;2.80;;
65033;SDS011;51601;51.356;12.458;2023-07-02T02:36:23;5.88;;;2.67;;
65033;SDS011;51601;51.356;12.458;2023-07-02T02:40:41;5.07;;;2.60;;
65033;SDS011;51601;51.356;12.458;2023-07-02T02:45:03;6.22;;;2.10;;
65033;SDS011;51601;51.356;12.458;2023-07-02T02:49:25;5.88;;;2.53;;
65033;SDS011;51601;51.356;12.458;2023-07-02T02:53:45;5.53;;;2.60;;
65033;SDS011;51601;51.356;12.458;2023-07-02T02:58:03;5.60;;;2.50;;
65033;SDS011;51601;51.356;12.458;2023-07-02T03:02:21;6.90;;;2.50;;
65033;SDS011;51601;51.356;12.458;2023-07-02T03:06:40;6.00;;;3.00;;
65033;SDS011;51601;51.356;12.458;2023-07-02T03:10:57;6.33;;;2.70;;
65033;SDS011;51601;51.356;12.458;2023-07-02T03:15:15;5.85;;;2.80;;
65033;SDS011;51601;51.356;12.458;2023-07-02T03:19:33;7.30;;;2.95;;
65033;SDS011;51601;51.356;12.458;2023-07-02T03:23:53;5.77;;;2.90;;
65033;SDS011;51601;51.356;12.458;2023-07-02T03:28:12;5.45;;;2.65;;
65033;SDS011;51601;51.356;12.458;2023-07-02T03:32:30;6.93;;;2.95;;
65033;SDS011;51601;51.356;12.458;2023-07-02T03:36:48;6.07;;;2.90;;
65033;SDS011;51601;51.356;12.458;2023-07-02T03:41:08;6.75;;;2.90;;
65033;SDS011;51601;51.356;12.458;2023-07-02T03:45:25;6.18;;;3.28;;
65033;SDS011;51601;51.356;12.458;2023-07-02T03:49:43;6.18;;;3.35;;
65033;SDS011;51601;51.356;12.458;2023-07-02T03:54:01;6.03;;;3.07;;
65033;SDS011;51601;51.356;12.458;2023-07-02T03:58:20;7.13;;;3.60;;
65033;SDS011;51601;51.356;12.458;2023-07-02T04:02:37;6.03;;;3.20;;
65033;SDS011;51601;51.356;12.458;2023-07-02T04:06:55;6.47;;;3.40;;
65033;SDS011;51601;51.356;12.458;2023-07-02T04:11:13;7.65;;;3.42;;
65033;SDS011;51601;51.356;12.458;2023-07-02T04:15:32;5.90;;;3.20;;
65033;SDS011;51601;51.356;12.458;2023-07-02T04:19:49;6.33;;;3.10;;
65033;SDS011;51601;51.356;12.458;2023-07-02T04:24:07;6.05;;;3.10;;
65033;SDS011;51601;51.356;12.458;2023-07-02T04:28:25;7.35;;;3.20;;
65033;SDS011;51601;51.356;12.458;2023-07-02T04:32:45;6.40;;;2.88;;
65033;SDS011;51601;51.356;12.458;2023-07-02T04:37:04;6.00;;;3.07;;
65033;SDS011;51601;51.356;12.458;2023-07-02T04:41:22;5.53;;;3.05;;
65033;SDS011;51601;51.356;12.458;2023-07-02T04:45:40;6.72;;;3.15;;
65033;SDS011;51601;51.356;12.458;2023-07-02T04:50:03;5.80;;;3.13;;
65033;SDS011;51601;51.356;12.458;2023-07-02T04:54:23;6.25;;;3.50;;
65033;SDS011;51601;51.356;12.458;2023-07-02T04:58:41;5.70;;;3.05;;
65033;SDS011;51601;51.356;12.458;2023-07-02T05:02:59;6.73;;;3.30;;
65033;SDS011;51601;51.356;12.458;2023-07-02T05:07:18;6.35;;;3.38;;
65033;SDS011;51601;51.356;12.458;2023-07-02T05:11:35;7.40;;;3.40;;
65033;SDS011;51601;51.356;12.458;2023-07-02T05:15:53;6.85;;;3.75;;
65033;SDS011;51601;51.356;12.458;2023-07-02T05:20:11;8.67;;;4.00;;
65033;SDS011;51601;51.356;12.458;2023-07-02T05:24:30;6.35;;;3.80;;
65033;SDS011;51601;51.356;12.458;2023-07-02T05:28:47;6.63;;;3.85;;
65033;SDS011;51601;51.356;12.458;2023-07-02T05:33:05;6.33;;;3.80;;
65033;SDS011;51601;51.356;12.458;2023-07-02T05:37:23;7.10;;;3.60;;
65033;SDS011;51601;51.356;12.458;2023-07-02T05:41:43;7.65;;;3.83;;
65033;SDS011;51601;51.356;12.458;2023-07-02T05:46:02;6.37;;;4.00;;
65033;SDS011;51601;51.356;12.458;2023-07-02T05:50:20;6.63;;;3.67;;
65033;SDS011;51601;51.356;12.458;2023-07-02T05:54:39;7.07;;;4.07;;
65033;SDS011;51601;51.356;12.458;2023-07-02T05:58:58;6.32;;;3.60;;
65033;SDS011;51601;51.356;12.458;2023-07-02T06:03:15;6.70;;;3.93;;
65033;SDS011;51601;51.356;12.458;2023-07-02T06:07:36;7.45;;;4.07;;
65033;SDS011;51601;51.356;12.458;2023-07-02T06:11:54;7.35;;;3.97;;
65033;SDS011;51601;51.356;12.458;2023-07-02T06:16:13;7.50;;;4.07;;
65033;SDS011;51601;51.356;12.458;2023-07-02T06:20:30;8.88;;;4.55;;
65033;SDS011;51601;51.356;12.458;2023-07-02T06:24:48;7.22;;;4.15;;
65033;SDS011;51601;51.356;12.458;2023-07-02T06:29:06;6.93;;;4.20;;
65033;SDS011;51601;51.356;12.458;2023-07-02T06:33:26;5.80;;;3.47;;
65033;SDS011;51601;51.356;12.458;2023-07-02T06:37:42;6.32;;;3.50;;
65033;SDS011;51601;51.356;12.458;2023-07-02T06:42:00;5.70;;;3.13;;
65033;SDS011;51601;51.356;12.458;2023-07-02T06:46:19;6.73;;;2.90;;
65033;SDS011;51601;51.356;12.458;2023-07-02T06:50:38;6.57;;;3.22;;
65033;SDS011;51601;51.356;12.458;2023-07-02T06:54:54;5.78;;;2.70;;
65033;SDS011;51601;51.356;12.458;2023-07-02T06:59:17;6.17;;;2.70;;
65033;SDS011;51601;51.356;12.458;2023-07-02T07:03:36;5.63;;;2.75;;
65033;SDS011;51601;51.356;12.458;2023-07-02T07:07:56;6.05;;;2.72;;
65033;SDS011;51601;51.356;12.458;2023-07-02T07:12:16;5.47;;;2.60;;
65033;SDS011;51601;51.356;12.458;2023-07-02T07:16:34;5.75;;;3.00;;
65033;SDS011;51601;51.356;12.458;2023-07-02T07:20:52;5.57;;;2.65;;
65033;SDS011;51601;51.356;12.458;2023-07-02T07:25:11;5.70;;;2.47;;
65033;SDS011;51601;51.356;12.458;2023-07-02T07:29:31;5.23;;;2.23;;
65033;SDS011;51601;51.356;12.458;2023-07-02T07:33:49;5.97;;;2.33;;
65033;SDS011;51601;51.356;12.458;2023-07-02T07:38:07;4.53;;;2.10;;
65033;SDS011;51601;51.356;12.458;2023-07-02T07:42:26;6.67;;;2.43;;
65033;SDS011;51601;51.356;12.458;2023-07-02T07:46:43;6.05;;;2.50;;
65033;SDS011;51601;51.356;12.458;2023-07-02T07:51:01;6.15;;;2.67;;
65033;SDS011;51601;51.356;12.458;2023-07-02T07:55:19;5.63;;;2.47;;
65033;SDS011;51601;51.356;12.458;2023-07-02T07:59:39;7.00;;;2.30;;
65033;SDS011;51601;51.356;12.458;2023-07-02T08:03:55;6.20;;;2.50;;
65033;SDS011;51601;51.356;12.458;2023-07-02T08:08:13;4.93;;;2.50;;
65033;SDS011;51601;51.356;12.458;2023-07-02T08:12:32;6.67;;;2.17;;
65033;SDS011;51601;51.356;12.458;2023-07-02T08:16:51;6.15;;;2.50;;
65033;SDS011;51601;51.356;12.458;2023-07-02T08:21:08;5.95;;;2.35;;
65033;SDS011;51601;51.356;12.458;2023-07-02T08:25:26;6.80;;;2.40;;
65033;SDS011;51601;51.356;12.458;2023-07-02T08:29:44;7.00;;;2.47;;
65033;SDS011;51601;51.356;12.458;2023-07-02T08:34:03;6.30;;;2.72;;
65033;SDS011;51601;51.356;12.458;2023-07-02T08:38:20;6.43;;;2.47;;
65033;SDS011;51601;51.356;12.458;2023-07-02T08:42:38;4.72;;;2.13;;
65033;SDS011;51601;51.356;12.458;2023-07-02T08:46:56;5.68;;;2.30;;
65033;SDS011;51601;51.356;12.458;2023-07-02T08:51:16;4.80;;;2.10;;
65033;SDS011;51601;51.356;12.458;2023-07-02T08:55:35;5.37;;;2.33;;
65033;SDS011;51601;51.356;12.458;2023-07-02T08:59:53;5.55;;;2.30;;
65033;SDS011;51601;51.356;12.458;2023-07-02T09:04:14;5.07;;;2.60;;
65033;SDS011;51601;51.356;12.458;2023-07-02T09:08:34;5.87;;;2.70;;
65033;SDS011;51601;51.356;12.458;2023-07-02T09:13:03;5.18;;;2.40;;
65033;SDS011;51601;51.356;12.458;2023-07-02T09:17:21;6.88;;;2.50;;
65033;SDS011;51601;51.356;12.458;2023-07-02T09:21:41;5.20;;;2.70;;
65033;SDS011;51601;51.356;12.458;2023-07-02T09:26:02;5.55;;;2.80;;
65033;SDS011;51601;51.356;12.458;2023-07-02T09:30:21;6.22;;;3.00;;
65033;SDS011;51601;51.356;12.458;2023-07-02T09:34:39;7.50;;;2.90;;
65033;SDS011;51601;51.356;12.458;2023-07-02T09:38:57;6.50;;;2.63;;
65033;SDS011;51601;51.356;12.458;2023-07-02T09:43:17;6.60;;;3.00;;
65033;SDS011;51601;51.356;12.458;2023-07-02T09:47:38;6.72;;;2.80;;
65033;SDS011;51601;51.356;12.458;2023-07-02T09:52:01;7.70;;;3.10;;
65033;SDS011;51601;51.356;12.458;2023-07-02T09:56:22;6.10;;;2.80;;
65033;SDS011;51601;51.356;12.458;2023-07-02T10:00:41;6.88;;;3.03;;
65033;SDS011;51601;51.356;12.458;2023-07-02T10:04:58;5.40;;;2.90;;
65033;SDS011;51601;51.356;12.458;2023-07-02T10:09:16;6.47;;;2.90;;
65033;SDS011;51601;51.356;12.458;2023-07-02T10:13:37;6.80;;;3.33;;
65033;SDS011;51601;51.356;12.458;2023-07-02T10:18:01;6.82;;;3.40;;
65033;SDS011;51601;51.356;12.458;2023-07-02T10:22:20;8.23;;;3.90;;
65033;SDS011;51601;51.356;12.458;2023-07-02T10:26:37;6.90;;;3.30;;
65033;SDS011;51601;51.356;12.458;2023-07-02T10:30:55;7.10;;;3.25;;
65033;SDS011;51601;51.356;12.458;2023-07-02T10:35:15;6.63;;;3.20;;
65033;SDS011;51601;51.356;12.458;2023-07-02T10:39:38;9.13;;;3.33;;
65033;SDS011;51601;51.356;12.458;2023-07-02T10:44:04;7.32;;;3.22;;
65033;SDS011;51601;51.356;12.458;2023-07-02T10:48:26;7.03;;;3.30;;
65033;SDS011;51601;51.356;12.458;2023-07-02T10:52:46;8.52;;;3.65;;
65033;SDS011;51601;51.356;12.458;2023-07-02T10:57:05;9.27;;;3.40;;
65033;SDS011;51601;51.356;12.458;2023-07-02T11:01:24;7.93;;;3.83;;
65033;SDS011;51601;51.356;12.458;2023-07-02T11:05:41;9.67;;;3.70;;
65033;SDS011;51601;51.356;12.458;2023-07-02T11:10:01;11.05;;;4.60;;
65033;SDS011;51601;51.356;12.458;2023-07-02T11:14:25;8.73;;;4.53;;
65033;SDS011;51601;51.356;12.458;2023-07-02T11:18:45;8.90;;;4.83;;
65033;SDS011;51601;51.356;12.458;2023-07-02T11:23:03;11.05;;;5.03;;
65033;SDS011;51601;51.356;12.458;2023-07-02T11:27:22;10.18;;;4.60;;
65033;SDS011;51601;51.356;12.458;2023-07-02T11:31:39;9.33;;;4.90;;
65033;SDS011;51601;51.356;12.458;2023-07-02T11:35:57;9.98;;;4.63;;
65033;SDS011;51601;51.356;12.458;2023-07-02T11:40:16;10.60;;;5.25;;
65033;SDS011;51601;51.356;12.458;2023-07-02T11:44:37;10.48;;;5.35;;
65033;SDS011;51601;51.356;12.458;2023-07-02T11:48:54;9.30;;;5.00;;
65033;SDS011;51601;51.356;12.458;2023-07-02T11:53:12;10.48;;;5.43;;
65033;SDS011;51601;51.356;12.458;2023-07-02T11:57:30;11.60;;;5.65;;
65033;SDS011;51601;51.356;12.458;2023-07-02T12:01:50;10.27;;;5.13;;
65033;SDS011;51601;51.356;12.458;2023-07-02T12:06:09;10.50;;;5.30;;
65033;SDS011;51601;51.356;12.458;2023-07-02T12:10:27;15.27;;;5.38;;
65033;SDS011;51601;51.356;12.458;2023-07-02T12:14:45;10.23;;;4.70;;
65033;SDS011;51601;51.356;12.458;2023-07-02T12:19:05;9.85;;;5.07;;
65033;SDS011;51601;51.356;12.458;2023-07-02T12:23:22;10.82;;;5.30;;
65033;SDS011;51601;51.356;12.458;2023-07-02T12:27:40;12.00;;;5.00;;
65033;SDS011;51601;51.356;12.458;2023-07-02T12:31:58;10.13;;;4.60;;
65033;SDS011;51601;51.356;12.458;2023-07-02T12:36:20;9.77;;;4.75;;
65033;SDS011;51601;51.356;12.458;2023-07-02T12:40:37;10.55;;;5.00;;
65033;SDS011;51601;51.356;12.458;2023-07-02T12:45:05;10.23;;;5.00;;
65033;SDS011;51601;51.356;12.458;2023-07-02T12:50:12;10.27;;;4.93;;
65033;SDS011;51601;51.356;12.458;2023-07-02T13:02:00;9.93;;;5.30;;
65033;SDS011;51601;51.356;12.458;2023-07-02T13:06:19;11.05;;;5.22;;
65033;SDS011;51601;51.356;12.458;2023-07-02T13:10:37;10.43;;;4.88;;
65033;SDS011;51601;51.356;12.458;2023-07-02T13:14:58;10.80;;;4.82;;
65033;SDS011;51601;51.356;12.458;2023-07-02T13:19:18;10.80;;;5.23;;
65033;SDS011;51601;51.356;12.458;2023-07-02T13:23:34;11.95;;;5.32;;
65033;SDS011;51601;51.356;12.458;2023-07-02T13:27:52;13.35;;;5.88;;
65033;SDS011;51601;51.356;12.458;2023-07-02T13:32:10;16.60;;;8.20;;
65033;SDS011;51601;51.356;12.458;2023-07-02T13:36:30;13.75;;;6.53;;
65033;SDS011;51601;51.356;12.458;2023-07-02T13:40:47;13.32;;;6.65;;
65033;SDS011;51601;51.356;12.458;2023-07-02T13:45:05;13.23;;;6.17;;
65033;SDS011;51601;51.356;12.458;2023-07-02T13:49:26;15.45;;;6.68;;
65033;SDS011;51601;51.356;12.458;2023-07-02T13:53:45;14.30;;;5.95;;
65033;SDS011;51601;51.356;12.458;2023-07-02T13:58:05;12.10;;;6.35;;
65033;SDS011;51601;51.356;12.458;2023-07-02T14:02:26;15.87;;;7.50;;
65033;SDS011;51601;51.356;12.458;2023-07-02T14:06:47;15.32;;;6.78;;
65033;SDS011;51601;51.356;12.458;2023-07-02T14:11:05;16.65;;;8.25;;
65033;SDS011;51601;51.356;12.458;2023-07-02T14:15:24;17.63;;;8.53;;
65033;SDS011;51601;51.356;12.458;2023-07-02T14:19:46;15.70;;;7.32;;
65033;SDS011;51601;51.356;12.458;2023-07-02T14:24:06;14.43;;;6.88;;
65033;SDS011;51601;51.356;12.458;2023-07-02T14:28:27;15.47;;;7.53;;
65033;SDS011;51601;51.356;12.458;2023-07-02T14:32:45;16.63;;;8.60;;
65033;SDS011;51601;51.356;12.458;2023-07-02T14:37:04;13.93;;;7.10;;
65033;SDS011;51601;51.356;12.458;2023-07-02T14:41:24;15.93;;;7.15;;
65033;SDS011;51601;51.356;12.458;2023-07-02T14:45:43;14.67;;;6.70;;
65033;SDS011;51601;51.356;12.458;2023-07-02T14:50:03;13.80;;;6.88;;
65033;SDS011;51601;51.356;12.458;2023-07-02T14:54:23;13.52;;;6.60;;
65033;SDS011;51601;51.356;12.458;2023-07-02T14:58:42;13.60;;;6.70;;
65033;SDS011;51601;51.356;12.458;2023-07-02T15:03:01;14.15;;;6.63;;
65033;SDS011;51601;51.356;12.458;2023-07-02T15:07:18;13.85;;;6.60;;
65033;SDS011;51601;51.356;12.458;2023-07-02T15:11:38;15.10;;;6.70;;
65033;SDS011;51601;51.356;12.458;2023-07-02T15:15:58;14.98;;;6.95;;
65033;SDS011;51601;51.356;12.458;2023-07-02T15:20:16;15.90;;;7.00;;
65033;SDS011;51601;51.356;12.458;2023-07-02T15:24:34;14.80;;;7.05;;
65033;SDS011;51601;51.356;12.458;2023-07-02T15:28:53;14.00;;;6.97;;
65033;SDS011;51601;51.356;12.458;2023-07-02T15:33:10;15.50;;;7.13;;
65033;SDS011;51601;51.356;12.458;2023-07-02T15:37:28;14.60;;;6.88;;
65033;SDS011;51601;51.356;12.458;2023-07-02T15:41:46;14.50;;;7.00;;
65033;SDS011;51601;51.356;12.458;2023-07-02T15:46:06;14.52;;;7.68;;
65033;SDS011;51601;51.356;12.458;2023-07-02T15:50:25;15.15;;;7.07;;
65033;SDS011;51601;51.356;12.458;2023-07-02T15:54:43;24.40;;;7.97;;
65033;SDS011;51601;51.356;12.458;2023-07-02T15:59:01;13.98;;;6.70;;
65033;SDS011;51601;51.356;12.458;2023-07-02T16:03:24;15.73;;;7.05;;
65033;SDS011;51601;51.356;12.458;2023-07-02T16:07:44;17.40;;;7.13;;
65033;SDS011;51601;51.356;12.458;2023-07-02T16:12:02;14.10;;;7.10;;
65033;SDS011;51601;51.356;12.458;2023-07-02T16:16:20;15.13;;;7.28;;
65033;SDS011;51601;51.356;12.458;2023-07-02T16:20:39;15.43;;;7.07;;
65033;SDS011;51601;51.356;12.458;2023-07-02T16:24:56;14.00;;;7.03;;
65033;SDS011;51601;51.356;12.458;2023-07-02T16:29:14;14.07;;;6.85;;
65033;SDS011;51601;51.356;12.458;2023-07-02T16:33:32;15.10;;;7.50;;
65033;SDS011;51601;51.356;12.458;2023-07-02T16:37:51;14.80;;;6.87;;
65033;SDS011;51601;51.356;12.458;2023-07-02T16:42:08;16.63;;;7.32;;
65033;SDS011;51601;51.356;12.458;2023-07-02T16:46:29;16.23;;;7.30;;
65033;SDS011;51601;51.356;12.458;2023-07-02T16:50:47;15.43;;;7.13;;
65033;SDS011;51601;51.356;12.458;2023-07-02T16:55:07;15.70;;;7.27;;
65033;SDS011;51601;51.356;12.458;2023-07-02T16:59:27;17.42;;;7.75;;
65033;SDS011;51601;51.356;12.458;2023-07-02T17:03:54;14.70;;;6.97;;
65033;SDS011;51601;51.356;12.458;2023-07-02T17:08:12;14.53;;;6.90;;
65033;SDS011;51601;51.356;12.458;2023-07-02T17:12:31;16.00;;;7.10;;
65033;SDS011;51601;51.356;12.458;2023-07-02T17:16:48;15.35;;;7.20;;
65033;SDS011;51601;51.356;12.458;2023-07-02T17:21:09;15.23;;;7.10;;
65033;SDS011;51601;51.356;12.458;2023-07-02T17:25:27;16.73;;;8.18;;
65033;SDS011;51601;51.356;12.458;2023-07-02T17:29:49;15.65;;;7.38;;
65033;SDS011;51601;51.356;12.458;2023-07-02T17:34:09;17.05;;;7.50;;
65033;SDS011;51601;51.356;12.458;2023-07-02T17:38:27;16.90;;;7.90;;
65033;SDS011;51601;51.356;12.458;2023-07-02T17:42:45;15.73;;;7.40;;
65033;SDS011;51601;51.356;12.458;2023-07-02T17:47:06;15.50;;;7.68;;
65033;SDS011;51601;51.356;12.458;2023-07-02T17:51:24;16.63;;;7.83;;
65033;SDS011;51601;51.356;12.458;2023-07-02T17:55:46;16.27;;;7.25;;
65033;SDS011;51601;51.356;12.458;2023-07-02T18:00:07;15.98;;;7.97;;
65033;SDS011;51601;51.356;12.458;2023-07-02T18:04:29;17.17;;;8.00;;
65033;SDS011;51601;51.356;12.458;2023-07-02T18:08:49;14.68;;;7.80;;
65033;SDS011;51601;51.356;12.458;2023-07-02T18:13:07;16.52;;;7.90;;
65033;SDS011;51601;51.356;12.458;2023-07-02T18:17:25;19.15;;;7.70;;
65033;SDS011;51601;51.356;12.458;2023-07-02T18:21:45;15.67;;;7.53;;
65033;SDS011;51601;51.356;12.458;2023-07-02T18:26:01;17.67;;;7.72;;
65033;SDS011;51601;51.356;12.458;2023-07-02T18:30:19;15.93;;;7.53;;
65033;SDS011;51601;51.356;12.458;2023-07-02T18:34:38;23.17;;;8.80;;
65033;SDS011;51601;51.356;12.458;2023-07-02T18:38:57;16.13;;;7.65;;
65033;SDS011;51601;51.356;12.458;2023-07-02T18:43:13;18.42;;;8.70;;
65033;SDS011;51601;51.356;12.458;2023-07-02T18:47:31;17.43;;;8.07;;
65033;SDS011;51601;51.356;12.458;2023-07-02T18:51:49;17.67;;;8.68;;
65033;SDS011;51601;51.356;12.458;2023-07-02T18:56:09;17.05;;;8.60;;
65033;SDS011;51601;51.356;12.458;2023-07-02T19:00:29;21.42;;;8.43;;
65033;SDS011;51601;51.356;12.458;2023-07-02T19:04:47;18.40;;;8.10;;
65033;SDS011;51601;51.356;12.458;2023-07-02T19:09:05;19.48;;;7.93;;
65033;SDS011;51601;51.356;12.458;2023-07-02T19:13:24;18.13;;;8.23;;
65033;SDS011;51601;51.356;12.458;2023-07-02T19:17:44;17.47;;;8.17;;
65033;SDS011;51601;51.356;12.458;2023-07-02T19:22:05;17.98;;;8.30;;
65033;SDS011;51601;51.356;12.458;2023-07-02T19:26:26;15.43;;;8.15;;
65033;SDS011;51601;51.356;12.458;2023-07-02T19:30:46;17.37;;;8.40;;
65033;SDS011;51601;51.356;12.458;2023-07-02T19:35:03;18.67;;;8.60;;
65033;SDS011;51601;51.356;12.458;2023-07-02T19:39:20;18.55;;;8.70;;
65033;SDS011;51601;51.356;12.458;2023-07-02T19:43:38;19.58;;;8.45;;
65033;SDS011;51601;51.356;12.458;2023-07-02T19:47:58;18.50;;;8.43;;
65033;SDS011;51601;51.356;12.458;2023-07-02T19:52:15;16.92;;;8.50;;
65033;SDS011;51601;51.356;12.458;2023-07-02T19:56:33;17.58;;;8.73;;
65033;SDS011;51601;51.356;12.458;2023-07-02T20:00:51;18.23;;;8.47;;
65033;SDS011;51601;51.356;12.458;2023-07-02T20:05:11;17.73;;;8.52;;
65033;SDS011;51601;51.356;12.458;2023-07-02T20:09:33;18.92;;;9.07;;
65033;SDS011;51601;51.356;12.458;2023-07-02T20:13:54;20.10;;;8.80;;
65033;SDS011;51601;51.356;12.458;2023-07-02T20:18:12;18.65;;;8.80;;
65033;SDS011;51601;51.356;12.458;2023-07-02T20:22:32;19.52;;;9.02;;
65033;SDS011;51601;51.356;12.458;2023-07-02T20:26:49;18.08;;;9.00;;
65033;SDS011;51601;51.356;12.458;2023-07-02T20:31:06;22.20;;;8.60;;
65033;SDS011;51601;51.356;12.458;2023-07-02T20:35:24;18.70;;;8.68;;
65033;SDS011;51601;51.356;12.458;2023-07-02T20:39:44;17.73;;;8.48;;
65033;SDS011;51601;51.356;12.458;2023-07-02T20:44:04;19.60;;;8.60;;
65033;SDS011;51601;51.356;12.458;2023-07-02T20:48:26;17.88;;;8.80;;
65033;SDS011;51601;51.356;12.458;2023-07-02T20:52:43;19.08;;;8.38;;
65033;SDS011;51601;51.356;12.458;2023-07-02T20:57:02;21.30;;;9.13;;
65033;SDS011;51601;51.356;12.458;2023-07-02T21:01:22;19.95;;;9.30;;
65033;SDS011;51601;51.356;12.458;2023-07-02T21:05:40;18.08;;;8.35;;
65033;SDS011;51601;51.356;12.458;2023-07-02T21:09:58;16.48;;;8.38;;
65033;SDS011;51601;51.356;12.458;2023-07-02T21:14:21;20.50;;;8.30;;
65033;SDS011;51601;51.356;12.458;2023-07-02T21:18:37;22.25;;;8.85;;
65033;SDS011;51601;51.356;12.458;2023-07-02T21:22:55;17.83;;;8.07;;
65033;SDS011;51601;51.356;12.458;2023-07-02T21:27:13;17.33;;;8.73;;
65033;SDS011;51601;51.356;12.458;2023-07-02T21:31:33;16.17;;;7.85;;
65033;SDS011;51601;51.356;12.458;2023-07-02T21:35:49;19.25;;;8.15;;
65033;SDS011;51601;51.356;12.458;2023-07-02T21:40:08;19.83;;;8.80;;
65033;SDS011;51601;51.356;12.458;2023-07-02T21:44:26;18.75;;;8.75;;
65033;SDS011;51601;51.356;12.458;2023-07-02T21:48:46;23.02;;;9.20;;
65033;SDS011;51601;51.356;12.458;2023-07-02T21:53:05;22.60;;;8.88;;
65033;SDS011;51601;51.356;12.458;2023-07-02T21:57:23;18.57;;;8.03;;
65033;SDS011;51601;51.356;12.458;2023-07-02T22:01:44;21.08;;;8.85;;
65033;SDS011;51601;51.356;12.458;2023-07-02T22:06:03;17.55;;;8.70;;
65033;SDS011;51601;51.356;12.458;2023-07-02T22:10:23;18.33;;;8.77;;
65033;SDS011;51601;51.356;12.458;2023-07-02T22:14:47;19.85;;;8.80;;
65033;SDS011;51601;51.356;12.458;2023-07-02T22:19:05;20.45;;;8.70;;
65033;SDS011;51601;51.356;12.458;2023-07-02T22:23:25;16.63;;;9.03;;
65033;SDS011;51601;51.356;12.458;2023-07-02T22:27:41;21.20;;;9.15;;
65033;SDS011;51601;51.356;12.458;2023-07-02T22:32:00;24.83;;;9.80;;
65033;SDS011;51601;51.356;12.458;2023-07-02T22:36:20;19.83;;;9.10;;
65033;SDS011;51601;51.356;12.458;2023-07-02T22:40:41;20.75;;;9.10;;
65033;SDS011;51601;51.356;12.458;2023-07-02T22:44:57;21.75;;;9.68;;
65033;SDS011;51601;51.356;12.458;2023-07-02T22:49:15;24.02;;;9.75;;
65033;SDS011;51601;51.356;12.458;2023-07-02T22:53:33;18.47;;;8.80;;
65033;SDS011;51601;51.356;12.458;2023-07-02T22:57:53;18.95;;;9.38;;
65033;SDS011;51601;51.356;12.458;2023-07-02T23:02:10;23.05;;;9.43;;
65033;SDS011;51601;51.356;12.458;2023-07-02T23:06:28;19.83;;;9.40;;
65033;SDS011;51601;51.356;12.458;2023-07-02T23:10:46;20.88;;;9.32;;
65033;SDS011;51601;51.356;12.458;2023-07-02T23:15:06;22.77;;;9.95;;
65033;SDS011;51601;51.356;12.458;2023-07-02T23:19:28;19.83;;;9.57;;
65033;SDS011;51601;51.356;12.458;2023-07-02T23:23:49;20.17;;;9.80;;
65033;SDS011;51601;51.356;12.458;2023-07-02T23:28:07;21.88;;;9.73;;
65033;SDS011;51601;51.356;12.458;2023-07-02T23:32:27;20.85;;;9.77;;
65033;SDS011;51601;51.356;12.458;2023-07-02T23:36:43;22.27;;;10.50;;
65033;SDS011;51601;51.356;12.458;2023-07-02T23:41:01;19.50;;;9.50;;
65033;SDS011;51601;51.356;12.458;2023-07-02T23:45:20;22.52;;;9.93;;
65033;SDS011;51601;51.356;12.458;2023-07-02T23:49:39;23.10;;;9.83;;
65033;SDS011;51601;51.356;12.458;2023-07-02T23:53:58;21.65;;;9.90;;
65033;SDS011;51601;51.356;12.458;2023-07-02T23:58:17;19.85;;;9.00;;
